createdAt,value
2023-01-30T00:01:45.538Z,8.77
2023-01-30T00:04:16.107Z,8.07
2023-01-30T00:06:44.583Z,8.00
2023-01-30T00:09:17.486Z,8.45
2023-01-30T00:11:44.530Z,8.03
2023-01-30T00:14:11.471Z,9.53
2023-01-30T00:16:38.509Z,9.10
2023-01-30T00:19:05.548Z,8.57
2023-01-30T00:21:32.531Z,7.90
2023-01-30T00:24:01.071Z,8.33
2023-01-30T00:26:28.313Z,7.87
2023-01-30T00:28:55.305Z,7.95
2023-01-30T00:31:23.165Z,8.17
2023-01-30T00:33:50.576Z,7.37
2023-01-30T00:36:17.525Z,8.67
2023-01-30T00:38:44.482Z,8.77
2023-01-30T00:41:13.754Z,8.00
2023-01-30T00:44:00.216Z,8.32
2023-01-30T00:46:51.173Z,8.23
2023-01-30T00:49:19.899Z,9.10
2023-01-30T00:51:46.959Z,7.80
2023-01-30T00:54:14.190Z,8.10
2023-01-30T00:56:41.166Z,7.03
2023-01-30T00:59:08.166Z,7.63
2023-01-30T01:01:35.257Z,8.57
2023-01-30T01:04:02.287Z,9.07
2023-01-30T01:06:29.440Z,7.30
2023-01-30T01:08:56.961Z,9.43
2023-01-30T01:11:24.678Z,9.70
2023-01-30T01:14:00.773Z,9.23
2023-01-30T01:16:30.223Z,8.00
2023-01-30T01:18:59.105Z,10.30
2023-01-30T01:21:26.099Z,9.23
2023-01-30T01:23:58.136Z,9.80
2023-01-30T01:26:25.998Z,9.80
2023-01-30T01:28:57.169Z,8.70
2023-01-30T01:31:24.732Z,11.67
2023-01-30T01:33:52.162Z,8.68
2023-01-30T01:36:42.429Z,9.57
2023-01-30T01:39:06.432Z,9.40
2023-01-30T01:41:33.529Z,9.17
2023-01-30T01:44:07.252Z,10.13
2023-01-30T01:46:40.421Z,9.87
2023-01-30T01:49:25.025Z,10.13
2023-01-30T01:51:55.190Z,10.83
2023-01-30T01:54:36.285Z,8.77
2023-01-30T01:57:12.055Z,7.80
2023-01-30T01:59:46.774Z,9.73
2023-01-30T02:05:02.453Z,8.20
2023-01-30T02:07:52.567Z,8.07
2023-01-30T02:10:23.432Z,8.77
2023-01-30T02:12:51.972Z,9.87
2023-01-30T02:15:21.353Z,10.43
2023-01-30T02:17:48.603Z,9.63
2023-01-30T02:20:32.422Z,7.83
2023-01-30T02:23:08.201Z,8.03
2023-01-30T02:25:44.407Z,8.97
2023-01-30T02:28:49.486Z,9.53
2023-01-30T02:31:36.859Z,10.63
2023-01-30T02:34:10.420Z,9.83
2023-01-30T02:36:58.783Z,8.50
2023-01-30T02:39:33.630Z,9.43
2023-01-30T02:42:12.139Z,11.03
2023-01-30T02:44:51.131Z,10.50
2023-01-30T02:47:25.721Z,9.20
2023-01-30T02:50:02.559Z,10.88
2023-01-30T02:52:31.599Z,9.47
2023-01-30T02:54:58.633Z,8.17
2023-01-30T02:57:27.362Z,9.13
2023-01-30T03:00:02.773Z,8.83
2023-01-30T03:02:52.183Z,10.23
2023-01-30T03:05:43.409Z,10.40
2023-01-30T03:08:28.762Z,10.77
2023-01-30T03:11:03.506Z,11.03
2023-01-30T03:13:59.136Z,11.60
2023-01-30T03:16:33.343Z,11.83
2023-01-30T03:19:01.761Z,11.50
2023-01-30T03:21:28.762Z,10.40
2023-01-30T03:23:55.746Z,9.60
2023-01-30T03:26:31.121Z,9.60
2023-01-30T03:28:58.590Z,10.13
2023-01-30T03:31:25.688Z,9.50
2023-01-30T03:33:52.747Z,11.60
2023-01-30T03:36:19.843Z,11.40
2023-01-30T03:38:46.973Z,9.97
2023-01-30T03:41:14.067Z,11.33
2023-01-30T03:43:41.191Z,9.77
2023-01-30T03:46:08.262Z,12.60
2023-01-30T03:48:35.278Z,13.10
2023-01-30T03:51:02.270Z,10.93
2023-01-30T03:53:29.728Z,10.90
2023-01-30T03:55:56.672Z,12.20
2023-01-30T03:58:30.124Z,12.00
2023-01-30T04:00:58.897Z,12.03
2023-01-30T04:03:26.502Z,11.93
2023-01-30T04:05:57.682Z,12.80
2023-01-30T04:08:24.673Z,11.37
2023-01-30T04:10:51.699Z,13.27
2023-01-30T04:13:18.862Z,11.40
2023-01-30T04:15:45.950Z,11.43
2023-01-30T04:18:33.873Z,12.35
2023-01-30T04:21:11.089Z,13.50
2023-01-30T04:23:39.663Z,10.87
2023-01-30T04:26:08.633Z,12.40
2023-01-30T04:28:38.377Z,11.50
2023-01-30T04:31:05.603Z,11.33
2023-01-30T04:33:58.402Z,12.00
2023-01-30T04:36:25.406Z,11.13
2023-01-30T04:38:53.327Z,11.87
2023-01-30T04:41:21.624Z,11.27
2023-01-30T04:43:49.392Z,13.27
2023-01-30T04:46:35.067Z,12.83
2023-01-30T04:49:02.133Z,11.77
2023-01-30T04:51:29.229Z,10.93
2023-01-30T04:53:57.777Z,13.90
2023-01-30T04:56:24.867Z,11.03
2023-01-30T04:58:53.177Z,12.87
2023-01-30T05:01:31.545Z,11.20
2023-01-30T05:03:59.248Z,11.87
2023-01-30T05:06:26.743Z,12.53
2023-01-30T05:08:55.919Z,11.00
2023-01-30T05:11:24.587Z,13.63
2023-01-30T05:13:51.840Z,12.43
2023-01-30T05:16:20.454Z,11.57
2023-01-30T05:18:47.794Z,10.77
2023-01-30T05:21:25.510Z,10.97
2023-01-30T05:23:53.723Z,11.27
2023-01-30T05:26:20.846Z,12.17
2023-01-30T05:28:53.124Z,13.33
2023-01-30T05:31:21.408Z,13.07
2023-01-30T05:33:49.714Z,10.47
2023-01-30T05:36:19.027Z,12.27
2023-01-30T05:38:46.411Z,13.10
2023-01-30T05:41:15.352Z,12.10
2023-01-30T05:43:42.681Z,10.13
2023-01-30T05:46:12.729Z,10.63
2023-01-30T05:48:39.905Z,13.50
2023-01-30T05:51:07.131Z,11.40
2023-01-30T05:53:35.263Z,13.50
2023-01-30T05:56:05.354Z,12.87
2023-01-30T05:58:33.330Z,10.67
2023-01-30T06:01:05.442Z,11.50
2023-01-30T06:03:32.580Z,12.03
2023-01-30T06:06:01.800Z,11.63
2023-01-30T06:08:29.241Z,15.20
2023-01-30T06:11:03.604Z,13.47
2023-01-30T06:13:30.885Z,13.33
2023-01-30T06:15:58.211Z,13.70
2023-01-30T06:18:25.575Z,11.53
2023-01-30T06:20:53.563Z,13.43
2023-01-30T06:23:23.575Z,13.07
2023-01-30T06:25:52.319Z,15.13
2023-01-30T06:28:20.276Z,12.70
2023-01-30T06:30:47.384Z,13.13
2023-01-30T06:33:14.820Z,11.87
2023-01-30T06:35:43.045Z,11.63
2023-01-30T06:38:11.654Z,13.63
2023-01-30T06:40:38.993Z,11.70
2023-01-30T06:43:06.232Z,14.50
2023-01-30T06:45:33.857Z,13.23
2023-01-30T06:48:00.843Z,14.57
2023-01-30T06:50:29.014Z,14.17
2023-01-30T06:52:56.838Z,15.83
2023-01-30T06:55:26.512Z,11.07
2023-01-30T06:58:13.307Z,12.27
2023-01-30T07:00:42.457Z,12.85
2023-01-30T07:03:17.576Z,13.20
2023-01-30T07:05:46.350Z,12.87
2023-01-30T07:08:13.919Z,14.03
2023-01-30T07:10:42.036Z,12.23
2023-01-30T07:13:09.502Z,11.00
2023-01-30T07:15:36.516Z,12.50
2023-01-30T07:18:03.617Z,12.10
2023-01-30T07:20:31.521Z,14.13
2023-01-30T07:22:58.747Z,12.60
2023-01-30T07:25:28.116Z,10.77
2023-01-30T07:28:00.795Z,13.37
2023-01-30T07:30:31.839Z,13.97
2023-01-30T07:33:00.265Z,13.13
2023-01-30T07:35:31.016Z,14.30
2023-01-30T07:37:58.527Z,12.23
2023-01-30T07:40:26.889Z,10.40
2023-01-30T07:43:06.491Z,11.57
2023-01-30T07:45:48.231Z,13.03
2023-01-30T07:48:18.024Z,12.67
2023-01-30T07:50:45.842Z,13.73
2023-01-30T07:53:15.828Z,13.83
2023-01-30T07:55:43.255Z,13.60
2023-01-30T07:58:14.655Z,10.10
2023-01-30T08:00:42.037Z,12.47
2023-01-30T08:03:16.868Z,11.30
2023-01-30T08:05:46.913Z,12.57
2023-01-30T08:08:14.544Z,11.60
2023-01-30T08:10:41.963Z,14.23
2023-01-30T08:13:08.945Z,18.33
2023-01-30T08:15:35.931Z,13.03
2023-01-30T08:18:02.915Z,12.97
2023-01-30T08:20:29.917Z,12.27
2023-01-30T08:22:59.230Z,11.90
2023-01-30T08:25:26.339Z,12.77
2023-01-30T08:27:53.919Z,12.43
2023-01-30T08:30:22.269Z,11.13
2023-01-30T08:32:49.449Z,10.10
2023-01-30T08:35:16.588Z,12.20
2023-01-30T08:37:43.865Z,11.97
2023-01-30T08:40:11.727Z,12.00
2023-01-30T08:42:39.789Z,12.50
2023-01-30T08:45:07.469Z,9.83
2023-01-30T08:47:35.720Z,12.43
2023-01-30T08:50:03.791Z,10.60
2023-01-30T08:52:33.030Z,12.33
2023-01-30T08:55:00.015Z,13.07
2023-01-30T08:57:27.038Z,12.53
2023-01-30T08:59:54.073Z,10.97
2023-01-30T09:02:21.312Z,14.50
2023-01-30T09:04:48.264Z,9.93
2023-01-30T09:07:15.365Z,12.35
2023-01-30T09:09:42.321Z,15.52
2023-01-30T09:12:09.341Z,10.38
2023-01-30T09:14:36.320Z,11.65
2023-01-30T09:17:03.279Z,11.53
2023-01-30T09:19:30.613Z,11.68
2023-01-30T09:21:57.650Z,9.93
2023-01-30T09:24:27.957Z,12.13
2023-01-30T09:26:57.706Z,11.70
2023-01-30T09:29:25.847Z,11.45
2023-01-30T09:31:53.358Z,12.15
2023-01-30T09:34:20.426Z,11.02
2023-01-30T09:36:47.383Z,13.05
2023-01-30T09:39:14.320Z,15.50
2023-01-30T09:42:05.394Z,11.80
2023-01-30T09:44:35.237Z,15.00
2023-01-30T09:47:08.252Z,12.32
2023-01-30T09:49:44.262Z,11.13
2023-01-30T09:52:43.305Z,11.68
2023-01-30T09:55:19.790Z,9.80
2023-01-30T09:57:51.990Z,14.27
2023-01-30T10:00:25.864Z,10.75
2023-01-30T10:03:21.403Z,9.27
2023-01-30T10:06:05.107Z,9.95
2023-01-30T10:09:00.717Z,11.95
2023-01-30T10:11:48.014Z,11.98
2023-01-30T10:14:36.475Z,12.07
2023-01-30T10:17:03.439Z,10.43
2023-01-30T10:19:50.212Z,12.88
2023-01-30T10:22:50.305Z,12.47
2023-01-30T10:25:24.508Z,10.65
2023-01-30T10:28:03.608Z,10.83
2023-01-30T10:30:31.151Z,11.73
2023-01-30T10:33:04.670Z,11.35
2023-01-30T10:35:36.084Z,10.82
2023-01-30T10:38:12.887Z,10.75
2023-01-30T10:40:46.171Z,12.02
2023-01-30T10:43:30.084Z,9.60
2023-01-30T10:46:10.405Z,10.18
2023-01-30T10:48:52.750Z,10.05
2023-01-30T10:51:34.856Z,10.02
2023-01-30T10:54:10.237Z,10.95
2023-01-30T10:57:14.188Z,11.43
2023-01-30T10:59:47.161Z,11.98
2023-01-30T11:02:40.779Z,12.25
2023-01-30T11:05:21.452Z,11.77
2023-01-30T11:07:49.380Z,12.27
2023-01-30T11:10:23.219Z,10.18
2023-01-30T11:12:58.704Z,10.27
2023-01-30T11:15:38.676Z,11.65
2023-01-30T11:19:16.263Z,10.00
2023-01-30T11:21:05.475Z,10.85
2023-01-30T11:23:44.941Z,12.07
2023-01-30T11:26:23.001Z,10.85
2023-01-30T11:28:50.061Z,11.05
2023-01-30T11:31:40.031Z,12.05
2023-01-30T11:34:17.709Z,16.92
2023-01-30T11:36:47.286Z,10.70
2023-01-30T11:39:14.567Z,11.05
2023-01-30T11:42:05.909Z,13.13
2023-01-30T11:44:36.168Z,10.55
2023-01-30T11:47:20.321Z,12.68
2023-01-30T11:50:01.968Z,10.95
2023-01-30T11:52:44.256Z,11.75
2023-01-30T11:55:15.695Z,11.88
2023-01-30T11:57:51.501Z,11.90
2023-01-30T12:00:29.511Z,10.68
2023-01-30T12:03:01.408Z,12.70
2023-01-30T12:05:37.001Z,12.07
2023-01-30T12:08:14.866Z,11.60
2023-01-30T12:10:44.356Z,11.05
2023-01-30T12:13:20.248Z,9.10
2023-01-30T12:15:52.953Z,10.80
2023-01-30T12:18:26.330Z,10.10
2023-01-30T12:21:00.419Z,9.70
2023-01-30T12:23:39.724Z,11.38
2023-01-30T12:26:25.793Z,11.32
2023-01-30T12:29:10.252Z,12.65
2023-01-30T12:31:42.057Z,10.50
2023-01-30T12:34:10.645Z,12.57
2023-01-30T12:37:05.186Z,11.77
2023-01-30T12:40:07.782Z,10.93
2023-01-30T12:42:47.945Z,12.68
2023-01-30T12:45:29.936Z,9.93
2023-01-30T12:48:08.847Z,13.32
2023-01-30T12:51:03.554Z,10.40
2023-01-30T12:53:42.642Z,10.25
2023-01-30T12:56:30.888Z,11.25
2023-01-30T12:59:03.914Z,9.93
2023-01-30T13:01:41.398Z,11.13
2023-01-30T13:04:23.779Z,9.50
2023-01-30T13:06:56.566Z,9.57
2023-01-30T13:09:44.766Z,11.05
2023-01-30T13:12:43.837Z,11.85
2023-01-30T13:15:21.714Z,10.05
2023-01-30T13:18:00.781Z,9.68
2023-01-30T13:20:39.903Z,10.85
2023-01-30T13:23:22.748Z,11.45
2023-01-30T13:26:02.084Z,12.73
2023-01-30T13:28:42.462Z,9.70
2023-01-30T13:31:20.057Z,7.88
2023-01-30T13:33:51.369Z,9.35
2023-01-30T13:36:23.322Z,10.10
2023-01-30T13:39:32.023Z,11.48
2023-01-30T13:42:02.039Z,9.48
2023-01-30T13:44:31.525Z,9.25
2023-01-30T13:47:27.768Z,10.23
2023-01-30T13:50:03.276Z,7.65
2023-01-30T13:52:41.088Z,9.70
2023-01-30T13:55:11.147Z,8.40
2023-01-30T13:57:45.460Z,9.18
2023-01-30T14:00:55.085Z,8.25
2023-01-30T14:03:31.790Z,11.40
2023-01-30T14:06:02.604Z,11.57
2023-01-30T14:08:50.670Z,9.38
2023-01-30T14:11:33.032Z,8.27
2023-01-30T14:14:04.574Z,10.05
2023-01-30T14:16:45.462Z,9.53
2023-01-30T14:19:28.675Z,8.18
2023-01-30T14:21:57.749Z,8.27
2023-01-30T14:24:25.192Z,8.63
2023-01-30T14:27:02.457Z,12.88
2023-01-30T14:29:38.514Z,7.75
2023-01-30T14:32:15.180Z,8.32
2023-01-30T14:34:44.158Z,7.90
2023-01-30T14:37:46.808Z,9.00
2023-01-30T14:40:22.786Z,8.25
2023-01-30T14:43:23.574Z,9.17
2023-01-30T14:45:53.221Z,8.88
2023-01-30T14:48:38.800Z,7.47
2023-01-30T14:51:34.629Z,7.97
2023-01-30T14:54:14.214Z,7.03
2023-01-30T14:57:04.187Z,6.32
2023-01-30T14:59:46.311Z,7.88
2023-01-30T15:02:13.345Z,7.28
2023-01-30T15:05:09.788Z,6.05
2023-01-30T15:07:43.242Z,9.00
2023-01-30T15:10:22.388Z,7.22
2023-01-30T15:13:13.745Z,11.73
2023-01-30T15:15:59.491Z,9.77
2023-01-30T15:19:02.720Z,7.28
2023-01-30T15:21:42.022Z,7.72
2023-01-30T15:24:18.504Z,7.28
2023-01-30T15:26:59.563Z,8.20
2023-01-30T15:29:56.040Z,6.65
2023-01-30T15:32:31.419Z,5.85
2023-01-30T15:35:16.684Z,7.00
2023-01-30T15:37:46.574Z,8.15
2023-01-30T15:40:16.623Z,6.78
2023-01-30T15:42:49.619Z,6.30
2023-01-30T15:45:24.415Z,6.03
2023-01-30T15:48:30.882Z,7.22
2023-01-30T15:51:00.483Z,8.18
2023-01-30T15:53:41.960Z,7.10
2023-01-30T15:56:11.824Z,7.80
2023-01-30T15:58:42.592Z,7.95
2023-01-30T16:01:11.383Z,7.20
2023-01-30T16:03:42.836Z,6.75
2023-01-30T16:06:24.688Z,7.55
2023-01-30T16:09:02.185Z,6.97
2023-01-30T16:11:39.416Z,6.65
2023-01-30T16:14:12.581Z,7.38
2023-01-30T16:16:44.529Z,6.07
2023-01-30T16:19:23.294Z,6.57
2023-01-30T16:21:50.311Z,6.93
2023-01-30T16:24:26.963Z,6.18
2023-01-30T16:27:00.027Z,5.50
2023-01-30T16:29:30.735Z,6.22
2023-01-30T16:31:58.186Z,6.60
2023-01-30T16:34:32.833Z,6.07
2023-01-30T16:37:23.058Z,5.13
2023-01-30T16:40:23.128Z,6.97
2023-01-30T16:43:02.016Z,7.57
2023-01-30T16:45:35.221Z,8.30
2023-01-30T16:48:35.410Z,5.78
2023-01-30T16:51:02.393Z,6.70
2023-01-30T16:53:32.277Z,5.85
2023-01-30T16:56:04.080Z,6.35
2023-01-30T16:58:34.222Z,6.28
2023-01-30T17:01:05.563Z,5.95
2023-01-30T17:03:37.077Z,6.47
2023-01-30T17:06:15.203Z,5.13
2023-01-30T17:08:54.300Z,5.88
2023-01-30T17:11:37.876Z,6.60
2023-01-30T17:14:20.203Z,5.72
2023-01-30T17:17:08.103Z,5.88
2023-01-30T17:19:36.887Z,5.95
2023-01-30T17:22:16.275Z,5.97
2023-01-30T17:24:43.293Z,7.30
2023-01-30T17:27:10.312Z,5.63
2023-01-30T17:29:44.990Z,6.00
2023-01-30T17:32:15.240Z,6.57
2023-01-30T17:34:42.622Z,5.22
2023-01-30T17:37:16.835Z,5.97
2023-01-30T17:39:44.089Z,5.28
2023-01-30T17:42:12.485Z,5.28
2023-01-30T17:44:39.819Z,5.22
2023-01-30T17:47:07.028Z,5.68
2023-01-30T17:49:34.014Z,5.20
2023-01-30T17:52:01.037Z,5.88
2023-01-30T17:54:30.161Z,5.07
2023-01-30T17:57:01.587Z,4.47
2023-01-30T17:59:28.769Z,4.50
2023-01-30T18:01:55.822Z,5.82
2023-01-30T18:04:23.081Z,5.75
2023-01-30T18:06:55.615Z,4.90
2023-01-30T18:09:24.652Z,5.45
2023-01-30T18:11:52.108Z,6.38
2023-01-30T18:14:19.440Z,6.22
2023-01-30T18:16:46.528Z,5.55
2023-01-30T18:19:15.729Z,5.47
2023-01-30T18:21:45.241Z,6.15
2023-01-30T18:24:13.773Z,5.30
2023-01-30T18:26:41.594Z,5.80
2023-01-30T18:29:09.899Z,5.45
2023-01-30T18:31:38.640Z,5.07
2023-01-30T18:34:07.231Z,5.13
2023-01-30T18:36:35.871Z,5.47
2023-01-30T18:39:03.969Z,5.45
2023-01-30T18:41:32.480Z,6.38
2023-01-30T18:44:02.319Z,5.35
2023-01-30T18:46:30.555Z,5.65
2023-01-30T18:48:58.438Z,6.03
2023-01-30T18:51:28.171Z,5.95
2023-01-30T18:53:55.774Z,5.40
2023-01-30T18:56:28.066Z,6.13
2023-01-30T18:58:56.544Z,6.50
2023-01-30T19:01:26.694Z,6.05
2023-01-30T19:04:01.965Z,5.50
2023-01-30T19:06:29.340Z,5.65
2023-01-30T19:08:57.604Z,6.00
2023-01-30T19:11:43.423Z,5.18
2023-01-30T19:14:10.864Z,5.85
2023-01-30T19:16:39.203Z,5.50
2023-01-30T19:19:07.788Z,8.27
2023-01-30T19:21:35.806Z,5.45
2023-01-30T19:24:04.219Z,6.95
2023-01-30T19:26:31.315Z,5.57
2023-01-30T19:28:58.480Z,4.95
2023-01-30T19:31:25.931Z,6.13
2023-01-30T19:33:56.096Z,5.07
2023-01-30T19:36:25.303Z,5.70
2023-01-30T19:38:52.846Z,4.80
2023-01-30T19:41:24.415Z,6.30
2023-01-30T19:43:53.255Z,5.53
2023-01-30T19:46:20.717Z,5.05
2023-01-30T19:48:49.046Z,5.63
2023-01-30T19:51:27.833Z,5.47
2023-01-30T19:54:06.781Z,7.15
2023-01-30T19:56:34.849Z,4.82
2023-01-30T19:59:02.478Z,5.03
2023-01-30T20:01:33.092Z,5.10
2023-01-30T20:04:02.046Z,6.25
2023-01-30T20:06:32.018Z,5.13
2023-01-30T20:09:05.484Z,5.03
2023-01-30T20:11:34.633Z,6.63
2023-01-30T20:14:02.510Z,5.03
2023-01-30T20:16:31.415Z,7.28
2023-01-30T20:19:12.991Z,5.65
2023-01-30T20:21:40.046Z,5.35
2023-01-30T20:24:07.492Z,4.82
2023-01-30T20:26:36.707Z,5.22
2023-01-30T20:29:04.975Z,6.47
2023-01-30T20:31:32.685Z,7.53
2023-01-30T20:34:04.970Z,7.75
2023-01-30T20:36:32.365Z,6.32
2023-01-30T20:39:04.418Z,5.78
2023-01-30T20:41:36.959Z,7.20
2023-01-30T20:44:06.287Z,6.43
2023-01-30T20:46:41.356Z,5.72
2023-01-30T20:49:20.355Z,5.50
2023-01-30T20:51:50.326Z,5.38
2023-01-30T20:54:18.878Z,5.50
2023-01-30T20:56:48.624Z,5.32
2023-01-30T20:59:18.507Z,6.55
2023-01-30T21:01:46.107Z,6.10
2023-01-30T21:04:15.519Z,5.57
2023-01-30T21:06:45.785Z,6.22
2023-01-30T21:09:23.975Z,5.38
2023-01-30T21:11:55.260Z,5.10
2023-01-30T21:14:29.563Z,5.22
2023-01-30T21:16:59.022Z,4.87
2023-01-30T21:19:27.038Z,5.45
2023-01-30T21:21:56.104Z,5.30
2023-01-30T21:24:26.515Z,4.75
2023-01-30T21:26:54.044Z,6.07
2023-01-30T21:29:24.650Z,6.15
2023-01-30T21:31:51.816Z,5.25
2023-01-30T21:34:18.912Z,4.95
2023-01-30T21:37:06.923Z,5.80
2023-01-30T21:39:53.961Z,4.43
2023-01-30T21:42:40.369Z,6.97
2023-01-30T21:45:08.066Z,9.07
2023-01-30T21:47:35.175Z,5.43
2023-01-30T21:50:02.363Z,4.38
2023-01-30T21:52:32.199Z,7.05
2023-01-30T21:54:59.501Z,6.30
2023-01-30T21:57:26.477Z,6.47
2023-01-30T21:59:53.562Z,4.95
2023-01-30T22:02:20.571Z,5.55
2023-01-30T22:04:47.515Z,7.53
2023-01-30T22:07:14.515Z,5.63
2023-01-30T22:09:41.475Z,5.38
2023-01-30T22:12:08.499Z,5.75
2023-01-30T22:14:36.441Z,5.88
2023-01-30T22:17:03.549Z,4.80
2023-01-30T22:19:35.666Z,5.63
2023-01-30T22:22:03.671Z,5.05
2023-01-30T22:24:30.823Z,5.18
2023-01-30T22:26:58.440Z,5.03
2023-01-30T22:29:25.533Z,5.50
2023-01-30T22:31:52.608Z,6.10
2023-01-30T22:34:19.691Z,5.13
2023-01-30T22:36:48.001Z,7.43
2023-01-30T22:39:14.958Z,6.03
2023-01-30T22:41:42.027Z,6.32
2023-01-30T22:44:10.826Z,6.30
2023-01-30T22:46:39.928Z,6.43
2023-01-30T22:49:09.220Z,6.10
2023-01-30T22:51:39.573Z,4.88
2023-01-30T22:54:15.722Z,6.55
2023-01-30T22:56:48.604Z,6.18
2023-01-30T22:59:15.865Z,4.95
2023-01-30T23:01:48.014Z,6.03
2023-01-30T23:04:17.724Z,5.90
2023-01-30T23:06:45.440Z,5.38
2023-01-30T23:09:16.632Z,5.07
2023-01-30T23:12:07.241Z,6.07
2023-01-30T23:14:34.895Z,5.17
2023-01-30T23:17:21.868Z,6.37
2023-01-30T23:19:48.843Z,5.65
2023-01-30T23:22:15.833Z,6.47
2023-01-30T23:24:42.808Z,5.72
2023-01-30T23:27:09.784Z,5.55
2023-01-30T23:29:37.074Z,7.10
2023-01-30T23:32:04.239Z,5.30
2023-01-30T23:34:31.352Z,6.25
2023-01-30T23:36:58.271Z,6.83
2023-01-30T23:39:25.370Z,6.00
2023-01-30T23:41:52.317Z,6.03
2023-01-30T23:44:19.321Z,5.65
2023-01-30T23:46:46.342Z,6.30
2023-01-30T23:49:14.935Z,7.13
2023-01-30T23:51:44.320Z,5.60
2023-01-30T23:54:12.678Z,6.82
2023-01-30T23:56:42.402Z,6.32
2023-01-30T23:59:09.754Z,5.30
